Tiempo atmosférico en la estación meteorológica de Baza, Granada (801 m.)



Fecha
DESCASC
Temp. máxima en grados centígrados (hora)
DESCASC
Temp. mínima en grados centígrados (hora)
DESCASC
Temp. media en grados centígrados
DESCASC
Racha de viento máxima en m/sg (hora)
DESCASC
Velocidad máxima media en intervalos de 10 minutos(hora)
DESCASC
Precipitaciones diarias en mm
DESCASC
Precipitaciones de 00:00 a 06:00 en mm
DESCASC
Precipitaciones de 06:00 a 12:00 en mm
DESCASC
Precipitaciones de 12:00 a 18:00 en mm
DESCASC
Precipitaciones de 18:00 a 24:00 en mm
DESCASC
31-03-2020 17 (18:20) 7.5 (08:20) 12.3 10.83 (07:30) 6.39 (07:30) 2.8 0.2 0.2 0.8 1.6
30-03-2020 16.9 (15:40) 3.6 (07:00) 10.2 7.22 (18:40) 4.44 (19:50) 3.2 0 0 0 3.2
29-03-2020 18.1 (17:30) -0.1 (00:00) 9 5.83 (17:00) 3.33 (18:50) 0 0 0 0 0
28-03-2020 15.9 (17:30) 3.4 (00:00) 9.6 6.67 (20:20) 3.61 (20:20) 0.8 0 0.8 0 0
27-03-2020 13.2 (15:20) 4.6 (00:00) 8.9 9.17 (14:40) 5.83 (14:30) 3 0 0 0 3
26-03-2020 17.3 (16:40) 6 (00:00) 11.6 11.67 (15:10) 6.94 (14:50) 1 1 0 0 0
25-03-2020 16 (16:20) 5.7 (00:00) 10.8 9.72 (16:50) 6.11 (17:00) 0 0 0 0 0
24-03-2020 10.3 (14:30) 7.4 (00:00) 8.9 10 (03:30) 4.72 (11:00) 0.8 0 0.4 0 0.4
23-03-2020 13.4 (12:50) 5 (00:00) 9.2 10.28 (13:40) 5.83 (13:40) 5.6 0.2 0 3.4 2
22-03-2020 13.8 (15:50) 5.5 (04:30) 9.7 7.78 (17:40) 5 (17:40) 10.2 0 0.8 2 7.4
21-03-2020 14.6 (16:10) 7 (00:00) 10.8 9.72 (08:40) 5 (01:40) 8 0 5 1 2
20-03-2020 14.8 (15:50) 3.3 (00:00) 9.1 9.72 (22:50) 5.83 (22:50) 0 0 0 0 0
19-03-2020 13.5 (14:40) 8.1 (00:00) 10.8 8.89 (12:20) 5.56 (15:10) 0 0 0 0 0
18-03-2020 16.7 (15:40) 8.7 (00:00) 12.7 11.39 (13:00) 7.22 (13:10) 0 0 0 0 0
17-03-2020 16.4 (14:10) -0.9 (-00:0) 7.7 12.22 (12:20) 6.67 (12:20) 2.2 0 0 2.2 0
16-03-2020 12 (15:50) 2.5 (00:00) 7.3 13.33 (08:30) 8.06 (08:30) 0 0 0 0 0
15-03-2020 19.5 (12:50) 5.1 (00:00) 12.3 10 (16:30) 5.83 (16:40) 0.2 0 0 0.2 0
14-03-2020 23 (15:40) 3 (00:00) 13 9.17 (19:00) 5.56 (19:00) 0 0 0 0 0
13-03-2020 21.9 (13:40) 6.3 (07:10) 14.1 10 (17:40) 5.56 (17:20) 0 0 0 0 0
12-03-2020 28.1 (17:40) 4.7 (00:00) 16.4 7.5 (18:40) 4.17 (18:40) 0 0 0 0 0
11-03-2020 30.4 (17:10) 3.9 (00:00) 17.1 6.94 (16:20) 4.17 (18:40) 0 0 0 0 0
10-03-2020 24.7 (15:40) 6.6 (00:00) 15.7 10.83 (04:00) 6.67 (04:00) 0 0 0 0 0
09-03-2020 20.4 (15:30) 8.8 (00:00) 14.6 13.33 (18:30) 8.06 (17:10) 0 0 0 0 0
08-03-2020 21.4 (16:20) -1.6 (-00:0) 9.9 9.72 (15:30) 5.83 (15:10) 0 0 0 0 0
07-03-2020 15.9 (16:00) 5 (00:00) 10.4 10 (18:40) 6.94 (10:10) 0 0 0 0 0
06-03-2020 13.4 (15:20) 5.8 (00:00) 9.6 15.56 (15:40) 9.17 (14:10) 0 0 0 0 0
05-03-2020 18.5 (14:40) 8.7 (00:00) 13.6 15.28 (16:00) 10.28 (16:10) 0 0 0 0 0
04-03-2020 18 (15:50) 9.9 (00:00) 13.9 11.67 (17:00) 7.5 (17:20) 0 0 0 0 0
03-03-2020 15.4 (15:00) 5 (00:00) 10.2 16.94 (15:50) 10.56 (15:50) 0 0 0 0 0

Gráficas

Temp. máximas Temp. mínimas Temp. medias Precipitaciones Rachas de viento máximas Velocidades máximas media en intervalos de 10 minutos

Datos horarios

Fecha y hora oficial Temperatura (ºC) Velocidad del viento (km/h) Dirección del viento Racha (km/h) Dirección de racha Precipitación (mm) Presión (hPa) Tendencia (hPa) Humedad (%)
2020-04-01 23:00:00 9.4 9 Oeste 19 Noroeste 0 922.6 1.5 77
2020-04-01 22:00:00 9.6 7 Oeste 20 Noroeste 0 921.9 1.1 75
2020-04-01 21:00:00 10.6 15 Noroeste 24 Noroeste 0 921.3 1 65
2020-04-01 20:00:00 11.7 8 Oeste 39 Oeste 0 921.1 0.9 57
2020-04-01 19:00:00 11.8 23 Oeste 40 Oeste 0 920.8 0.2 65
2020-04-01 18:00:00 14.3 24 Oeste 41 Oeste 0 920.3 -0.6 59
2020-04-01 17:00:00 14.6 21 Oeste 33 Oeste 0 920.2 -1 52
2020-04-01 16:00:00 14.3 18 Oeste 32 Oeste 0 920.6 -1.2 56
2020-04-01 15:00:00 14.1 17 Oeste 32 Oeste 0 920.9 -1.4 60
2020-04-01 14:00:00 15.2 14 Oeste 25 Noroeste 0 921.2 -1 53
2020-04-01 13:00:00 13.2 12 Noroeste 23 Noroeste 0 921.8 0 62
2020-04-01 12:00:00 9.2 8 Norte 15 Norte 0 922.3 0.8 98
2020-04-01 11:00:00 8.6 11 Norte 15 Norte 0 922.2 1.1 99
2020-04-01 10:00:00 6.8 3 Sudeste 6 Noroeste 0 921.8 1.2 99
2020-04-01 09:00:00 5.7 3 Nordeste 9 Norte 0.2 921.5 1 98
2020-04-01 08:00:00 5.1 7 Sur 10 Sudeste 0 921.1 0.5 98
2020-04-01 07:00:00 5.7 0 Calma 9 Sudeste 0 920.6 -0.1 97
2020-04-01 06:00:00 6 5 Este 9 Sudoeste 0 920.5 -0.7 95
2020-04-01 05:00:00 7.5 6 Sudoeste 10 Sudoeste 0 920.6 -0.9 95
2020-04-01 04:00:00 8.4 4 Este 10 Este 0 920.7 -0.1 95
2020-04-01 03:00:00 8.9 6 Norte 18 Oeste 0.4 921.2 0.4 95
2020-04-01 02:00:00 9.7 11 Oeste 16 Oeste 0 921.5 1.2 93
2020-04-01 01:00:00 9.5 6 Sur 10 Sudeste 0 920.8 1.2 96
2020-04-01 00:00:00 9.7 8 Sudeste 15 Sudeste 0 920.8 2 95
2020-03-31 23:00:00 10 12 Sudeste 17 Sudeste 0 920.3 2.3 94
2020-03-31 22:00:00 11 5 Sur 11 Sudeste 0 919.6 2.1 91
2020-03-31 21:00:00 12.2 6 Sur 10 Sudoeste 0 918.8 1.7 83
2020-03-31 20:00:00 13.6 4 Sur 9 Sur 1.6 918 1.2 82
2020-03-31 19:00:00 15.2 4 Oeste 12 Noroeste 0 917.5 0.5 60
2020-03-31 18:00:00 15.7 6 Noroeste 17 Noroeste 0 917.1 -0.2 64
2020-03-31 17:00:00 14.7 8 Norte 14 Este 0 916.8 -0.6 67
2020-03-31 16:00:00 15.3 11 Sudeste 18 Este 0 917 -0.3 70
2020-03-31 15:00:00 13.9 4 Oeste 12 Sur 0.4 917.3 0.2 68
2020-03-31 14:00:00 13 4 Este 14 Sudeste 0 917.4 0.6 72
2020-03-31 13:00:00 12.3 4 Sur 19 Este 0.4 917.3 0.8 77
2020-03-31 12:00:00 11.5 4 Sudeste 26 Sudeste 0 917.1 0.8 75
2020-03-31 11:00:00 10.3 12 Sudeste 22 Sudeste 0 916.8 1.9 76
2020-03-31 10:00:00 8.7 3 Sur 15 Sudeste 0 916.5 1.3 83
2020-03-31 09:00:00 7.9 8 Este 23 Sudeste 0 916.3 0.7 84
2020-03-31 08:00:00 7.7 14 Este 39 Sudeste 0 914.9 -0.4 90
2020-03-31 07:00:00 7.8 17 Sudeste 29 Sudeste 0.2 915.2 -0.9 92
2020-03-31 06:00:00 8.3 13 Sudeste 33 Sudeste 0 915.6 -1.4 88
2020-03-31 05:00:00 8.3 15 Sudeste 34 Sudeste 0 915.3 -2.8 89
2020-03-31 04:00:00 8.2 4 Este 21 Sudeste 0 916.1 -1.8 91
2020-03-31 03:00:00 8.3 5 Este 20 Este 0 917 -2.1 92
2020-03-31 02:00:00 9 11 Sudeste 24 Sudeste 0.2 918.1 -0.5 91
2020-03-31 01:00:00 9 10 Sudeste 22 Sudeste 0 917.9 -0.6 91
2020-03-31 00:00:00 9.5 11 Sur 20 Sudeste 0 919.1 1 93
2020-03-30 23:00:00 9.7 12 Sudeste 20 Sudeste 0 918.6 0.1 94
2020-03-30 22:00:00 10.1 10 Sudeste 23 Sudeste 0 918.5 0.6 94
2020-03-30 21:00:00 10 7 Sudeste 17 Sudeste 0.4 918.1 0.1 92
2020-03-30 20:00:00 11 11 Sur 26 Sur 2.8 918.5 -0.3 88
2020-03-30 19:00:00 14.7 12 Sudeste 26 Sudeste 0 917.9 -1.3 58
2020-03-30 18:00:00 15.7 11 Sudeste 21 Sudeste 0 918 -2 56
2020-03-30 17:00:00 14.9 5 Sudoeste 12 Sur 0 918.8 -2.1 59
2020-03-30 16:00:00 16.4 5 Este 14 Este 0 919.2 -2.3 47
2020-03-30 15:00:00 15.4 7 Este 13 Este 0 920 -2.3 52
2020-03-30 14:00:00 15.4 4 Norte 15 Nordeste 0 920.9 -1.8 48
2020-03-30 13:00:00 15.1 9 Norte 15 Norte 0 921.5 -1.5 51
2020-03-30 12:00:00 11.9 3 Sudeste 7 Este 0 922.3 -0.6 67
2020-03-30 11:00:00 8.8 2 Nordeste 6 Norte 0 922.7 0 85
2020-03-30 10:00:00 6.4 3 Oeste 6 Oeste 0 923 0.4 90
2020-03-30 09:00:00 5.1 2 Sudeste 7 Sudeste 0 922.9 -0.1 94
2020-03-30 08:00:00 4.3 4 Sudeste 9 Sudeste 0 922.7 -1 94
2020-03-30 07:00:00 3.8 8 Sur 11 Sudeste 0 922.6 -1.4 93
2020-03-30 06:00:00 4.2 7 Sudeste 11 Sudeste 0 923 -1.5 91
2020-03-30 05:00:00 5.2 6 Sur 12 Sudeste 0 923.7 -1.2 87
2020-03-30 04:00:00 6 7 Sur 11 Sudeste 0 924 -1.3 84
2020-03-30 03:00:00 6.1 6 Sur 9 Sur 0 924.5 -1 84
2020-03-30 02:00:00 7 3 Sur 7 Oeste 0 924.9 -0.8 80
2020-03-30 01:00:00 8.8 5 Oeste 8 Sudoeste 0 925.3 -0.1 70
2020-03-30 00:00:00 10.3 6 Sudoeste 13 Oeste 0 925.5 0.4 60
2020-03-29 23:00:00 11 9 Sudoeste 13 Sudoeste 0 925.7 0.8 59
2020-03-29 22:00:00 11.6 8 Oeste 13 Oeste 0 925.4 0.6 59
2020-03-29 21:00:00 13.7 7 Oeste 14 Oeste 0 925.1 0.2 49
2020-03-29 20:00:00 16.1 7 Noroeste 19 Noroeste 0 924.9 -0.5 38
2020-03-29 19:00:00 17.3 10 Noroeste 20 Noroeste 0 924.8 -1.4 33
2020-03-29 18:00:00 17.7 9 Noroeste 21 Oeste 0 924.9 -1.9 32
2020-03-29 17:00:00 17.5 9 Noroeste 21 Noroeste 0 925.4 -2.1 35
2020-03-29 16:00:00 16.6 8 Norte 20 Norte 0 926.2 -1.8 39
2020-03-29 15:00:00 15.3 11 Norte 19 Norte 0 926.8 -1.8 37
2020-03-29 14:00:00 14.7 9 Norte 19 Noroeste 0 927.5 -1.3 48
2020-03-29 13:00:00 12.5 7 Norte 14 Noroeste 0 928 -0.6 60
2020-03-29 12:00:00 8.3 6 Norte 12 Norte 0 928.6 0.1 83
2020-03-29 11:00:00 5.1 3 Norte 8 Noroeste 0 928.8 0.7 95
2020-03-29 10:00:00 2.7 2 Norte 6 Noroeste 0 928.6 0.6 99
2020-03-29 09:00:00 0.3 5 Sur 7 Sur 0 928.5 0.5 98
2020-03-29 08:00:00 0.1 5 Sudeste 6 Sudeste 0 928.1 0 98
2020-03-29 07:00:00 0.7 2 Sudoeste 6 Sur 0 928 -0.4 97
2020-03-29 06:00:00 0.9 4 Sur 7 Sur 0 928 -0.8 97
2020-03-29 05:00:00 1.6 2 Sudeste 5 Sudeste 0 928.1 -0.8 96
2020-03-29 03:00:00 3.4 3 Este 6 Este 0 928.8 0.3 94
2020-03-29 01:00:00 4 2 Sudeste 8 Este 0 928.9 0.8 93
2020-03-29 00:00:00 5.2 5 Sudeste 11 Sudeste 0 928.8 1.5 90
2020-03-28 23:00:00 6.5 8 Sudeste 18 Sur 0 928.5 2.1 87
2020-03-28 22:00:00 7.4 9 Sudeste 19 Sudeste 0 928.1 2.3 84
2020-03-28 21:00:00 8.7 11 Sur 24 Sudeste 0 927.3 2 78
2020-03-28 20:00:00 12.3 4 Nordeste 12 Norte 0 926.4 1.4 61
2020-03-28 19:00:00 13.5 9 Norte 15 Noroeste 0 925.8 0.5 51
2020-03-28 18:00:00 15.7 6 Norte 19 Norte 0 925.3 -0.5 36
2020-03-28 17:00:00 15.1 8 Norte 15 Norte 0 925 -1.3 37
2020-03-28 16:00:00 14.5 8 Norte 14 Norte 0 925.3 -1.3 43
2020-03-28 15:00:00 13.7 4 Noroeste 12 Sudeste 0 925.8 -1.2 51
2020-03-28 14:00:00 12.5 4 Noroeste 17 Sudeste 0 926.3 -0.7 58
2020-03-28 13:00:00 10.1 3 Este 17 Nordeste 0 926.6 0 69
2020-03-28 12:00:00 9.6 5 Nordeste 15 Este 0 927 1 74
2020-03-28 11:00:00 6.9 4 Norte 8 Noroeste 0 927 1.4 92
2020-03-28 10:00:00 4.2 3 Norte 13 Noroeste 0 926.6 1.9 98
2020-03-28 09:00:00 3.6 5 Noroeste 16 Noroeste 0.8 926 1.8 98
2020-03-28 08:00:00 3.5 11 Noroeste 17 Noroeste 0 925.6 1.9 96
2020-03-28 07:00:00 4 8 Noroeste 15 Noroeste 0 924.7 1.3 95
2020-03-28 06:00:00 4.7 7 Noroeste 12 Noroeste 0 924.2 0.6 96
2020-03-28 05:00:00 4.9 8 Norte 13 Norte 0 923.7 0.2 97
2020-03-28 04:00:00 5.1 3 Oeste 8 Oeste 0 923.4 0 97
2020-03-28 03:00:00 4.9 5 Oeste 9 Norte 0 923.6 0.3 97
2020-03-28 02:00:00 5 6 Nordeste 16 Sudeste 0 923.5 0.6 97
2020-03-28 01:00:00 4.7 7 Sudeste 19 Sudeste 0 923.4 1 97
2020-03-28 00:00:00 5 8 Sur 15 Sur 0.2 923.3 1.7 97
2020-03-27 23:00:00 4.7 6 Sur 19 Norte 0.4 922.9 2.1 98
2020-03-27 22:00:00 4.8 10 Noroeste 24 Noroeste 0.2 922.4 2.3 98
2020-03-27 21:00:00 5.5 11 Noroeste 20 Noroeste 0.8 921.6 2.5 98
2020-03-27 20:00:00 6.9 10 Noroeste 18 Norte 1.4 920.8 2.3 96
2020-03-27 19:00:00 8.2 8 Sur 24 Sur 0 920.1 1.4 85
2020-03-27 18:00:00 9.4 14 Sudeste 28 Sudeste 0 919.1 0.1 75
2020-03-27 17:00:00 9.9 17 Sudeste 33 Sudeste 0 918.5 -1 71
2020-03-27 16:00:00 10.9 18 Sudeste 33 Sudeste 0 918.7 -1.1 69
2020-03-27 15:00:00 11 18 Sudeste 33 Sudeste 0 919 -1 67
2020-03-27 14:00:00 10.5 19 Sur 32 Sudeste 0 919.5 -0.7 70
2020-03-27 13:00:00 10.6 19 Sudeste 30 Sudeste 0 919.8 -0.1 67
2020-03-27 12:00:00 11.4 17 Sudeste 33 Sudeste 0 920 0.5 66
2020-03-27 11:00:00 9.8 20 Sudeste 32 Sudeste 0 920.2 1.1 71
2020-03-27 10:00:00 8.2 17 Sudeste 33 Sudeste 0 919.9 1.2 79
2020-03-27 09:00:00 6.9 15 Sudeste 28 Sudeste 0 919.5 0.9 83
2020-03-27 08:00:00 6.6 12 Sudeste 23 Sudeste 0 919.1 0.6 88
2020-03-27 07:00:00 6.6 12 Sudeste 25 Sudeste 0 918.7 -0.1 90
2020-03-27 06:00:00 6.4 12 Sudeste 28 Sudeste 0 918.6 -0.4 92
2020-03-27 05:00:00 6.6 14 Sudeste 27 Sudeste 0 918.5 -0.6 95
2020-03-27 04:00:00 6.8 14 Sudeste 31 Sudeste 0 918.8 -0.4 95
2020-03-27 03:00:00 7 18 Sudeste 27 Sudeste 0 919 -0.1 95
2020-03-27 02:00:00 7.6 10 Sudeste 17 Sudeste 0 919.1 0 90
2020-03-27 01:00:00 8.3 7 Sudeste 23 Este 0 919.2 0.1 83
2020-03-27 00:00:00 10.5 10 Norte 18 Sudoeste 0 919.1 0.7 67
2020-03-26 23:00:00 11.7 11 Sudoeste 20 Sudoeste 0 919.1 1.1 61
2020-03-26 22:00:00 12.7 8 Oeste 16 Noroeste 0 919.1 1.3 57
2020-03-26 21:00:00 13.3 7 Noroeste 17 Oeste 0 918.4 1 55
2020-03-26 20:00:00 13.4 7 Oeste 28 Oeste 0 918 0.7 50
2020-03-26 19:00:00 14.7 15 Noroeste 31 Noroeste 0 917.8 0.2 41
2020-03-26 18:00:00 15.4 18 Noroeste 30 Noroeste 0 917.4 -0.8 43
2020-03-26 17:00:00 16.8 18 Noroeste 38 Noroeste 0 917.3 -1.3 41
2020-03-26 16:00:00 15.7 24 Noroeste 42 Noroeste 0 917.6 -1.5 47
2020-03-26 15:00:00 15.6 22 Noroeste 40 Noroeste 0 918.2 -1.5 53
2020-03-26 14:00:00 14.9 20 Noroeste 36 Oeste 0 918.6 -1.6 61
2020-03-26 13:00:00 14 21 Noroeste 32 Noroeste 0 919.1 -0.9 63
2020-03-26 12:00:00 12.4 17 Oeste 29 Oeste 0 919.7 -0.5 76
2020-03-26 11:00:00 10 15 Oeste 26 Oeste 0 920.2 0.2 86
2020-03-26 10:00:00 9.3 14 Oeste 23 Noroeste 0 920 0 87
2020-03-26 09:00:00 9 19 Noroeste 29 Oeste 0 920.2 -0.1 89
2020-03-26 08:00:00 7.8 16 Oeste 26 Oeste 0 920 -0.6 89
2020-03-26 07:00:00 8.7 14 Oeste 32 Oeste 0 920 -0.9 84
2020-03-26 06:00:00 8.5 12 Oeste 20 Noroeste 0 920.3 -1.4 88
2020-03-26 05:00:00 8.1 12 Noroeste 26 Noroeste 0 920.6 -1.8 91
2020-03-26 04:00:00 8.9 18 Oeste 28 Oeste 0 920.9 -2.3 79
2020-03-26 03:00:00 7.5 13 Noroeste 30 Oeste 0.2 921.7 -1.9 92
2020-03-26 02:00:00 6.8 5 Nordeste 12 Este 0.8 922.4 -1.4 96
2020-03-26 01:00:00 6.5 7 Sur 17 Sudeste 0 923.2 -0.8 93
2020-03-26 00:00:00 6.1 5 Sur 17 Sudeste 0 923.6 -0.3 92
2020-03-25 23:00:00 6 8 Sudeste 18 Sudeste 0 923.8 0.3 92
2020-03-25 22:00:00 6.3 9 Sudeste 21 Sudeste 0 924 1.1 91
2020-03-25 21:00:00 7 12 Sudeste 26 Sudeste 0 923.9 1.2 89
2020-03-25 20:00:00 8.7 18 Sudeste 28 Sudeste 0 923.5 0.7 78
2020-03-25 19:00:00 13.1 15 Oeste 33 Oeste 0 922.9 -0.3 45
2020-03-25 18:00:00 15 19 Oeste 33 Noroeste 0 922.7 -1.2 39
2020-03-25 17:00:00 15.1 22 Oeste 35 Oeste 0 922.8 -1.7 35
2020-03-25 16:00:00 15.7 17 Oeste 28 Oeste 0 923.2 -1.9 41
2020-03-25 15:00:00 14.2 13 Oeste 29 Oeste 0 923.9 -1.5 42
2020-03-25 14:00:00 14.3 8 Sudoeste 17 Noroeste 0 924.5 -0.9 45
2020-03-25 13:00:00 12.6 5 Norte 9 Sudoeste 0 925.1 0 54
2020-03-25 12:00:00 10.9 5 Sudoeste 10 Nordeste 0 925.4 0.6 55
2020-03-25 11:00:00 10.2 5 Sudeste 18 Este 0 925.4 0.7 59
2020-03-25 10:00:00 8.5 6 Este 11 Este 0 925.1 0.6 77
2020-03-25 09:00:00 6.5 0 Calma 5 Oeste 0 924.8 0.3 82
2020-03-25 08:00:00 5.8 0 Calma 4 Oeste 0 924.7 0.1 88
2020-03-25 07:00:00 6 0 Calma 8 Oeste 0 924.5 -0.2 85
2020-03-25 06:00:00 6.2 6 Oeste 8 Oeste 0 924.5 -0.3 86
2020-03-25 05:00:00 6.3 2 Oeste 9 Norte 0 924.6 -0.3 85
2020-03-25 04:00:00 6.3 5 Noroeste 7 Norte 0 924.7 -0.1 87
2020-03-25 03:00:00 6.6 3 Norte 12 Nordeste 0 924.8 0.3 86
2020-03-25 02:00:00 6.7 8 Nordeste 20 Nordeste 0 924.9 0.5 86
2020-03-25 01:00:00 7 15 Nordeste 25 Nordeste 0 924.8 0.9 87
2020-03-25 00:00:00 7.7 9 Nordeste 19 Nordeste 0 924.5 1.2 87
2020-03-24 23:00:00 7.8 7 Nordeste 21 Norte 0 924.4 1.5 89
2020-03-24 22:00:00 7.8 4 Norte 8 Nordeste 0 923.9 1.3 94
2020-03-24 21:00:00 7.8 3 Sudeste 13 Sudeste 0.2 923.3 1.2 93
2020-03-24 20:00:00 8.2 9 Sur 24 Este 0 922.9 1.3 91
2020-03-24 19:00:00 8.6 11 Este 30 Este 0.2 922.6 0.9 86
2020-03-24 18:00:00 9.4 17 Este 32 Este 0 922.1 0.4 78
2020-03-24 17:00:00 9.5 7 Nordeste 18 Nordeste 0 921.6 -0.5 84
2020-03-24 16:00:00 10 5 Nordeste 29 Este 0 921.7 -0.8 80
2020-03-24 15:00:00 10.3 9 Nordeste 24 Nordeste 0 921.7 -0.7 77
2020-03-24 14:00:00 10 12 Nordeste 29 Nordeste 0 922.1 -0.1 75
2020-03-24 13:00:00 9.5 14 Nordeste 33 Nordeste 0 922.5 0.4 73
2020-03-24 12:00:00 9.7 5 Sur 19 Este 0 922.4 0.5 84
2020-03-24 11:00:00 9.1 17 Este 32 Este 0 922.2 0.7 82
2020-03-24 10:00:00 8.1 8 Sudeste 15 Sudeste 0.2 922.1 0.7 95
2020-03-24 09:00:00 7.6 4 Nordeste 13 Nordeste 0.2 921.9 0.6 93
2020-03-24 08:00:00 7.5 6 Norte 14 Nordeste 0 921.5 0.1 90
2020-03-24 07:00:00 7.5 8 Nordeste 13 Norte 0 921.4 -0.1 89
2020-03-24 06:00:00 7.9 8 Este 18 Este 0 921.3 -0.6 90
2020-03-24 05:00:00 7.9 10 Sudeste 22 Este 0 921.4 -0.9 90
2020-03-24 04:00:00 8.3 10 Este 36 Este 0 921.5 -0.9 84
2020-03-24 03:00:00 8.5 11 Este 33 Este 0 921.9 -1 82
2020-03-24 02:00:00 8.4 8 Este 28 Nordeste 0 922.3 -0.7 90
2020-03-24 01:00:00 8.3 8 Nordeste 30 Nordeste 0 922.4 -0.3 88
2020-03-24 00:00:00 7.9 7 Sudeste 17 Este 0 922.9 0.4 93
2020-03-23 23:00:00 8.2 8 Este 19 Este 0 923 0.9 88
2020-03-23 22:00:00 8.3 6 Nordeste 24 Este 0 922.7 1 88
2020-03-23 21:00:00 8.5 7 Oeste 10 Oeste 0 922.5 1.1 93
2020-03-23 20:00:00 8.2 6 Sudeste 15 Sudeste 0 922.1 0.6 95
2020-03-23 19:00:00 8.7 3 Norte 9 Sudeste 2 921.7 0.1 96
2020-03-23 18:00:00 8.9 5 Sudeste 15 Sur 2.4 921.4 -0.6 95
2020-03-23 17:00:00 9.1 11 Sudeste 20 Sudeste 0.2 921.5 -1.3 90
2020-03-23 16:00:00 9.8 5 Este 11 Norte 0.8 921.6 -1.3 87
2020-03-23 15:00:00 10.1 3 Sudoeste -- -- 0 922 -1.3 77
2020-03-23 14:00:00 11.1 17 Este 37 Este 0 922.8 -0.5 70
2020-03-23 13:00:00 13.1 11 Sudeste 22 Sudeste 0 922.9 -0.5 64
2020-03-23 12:00:00 10.6 5 Norte 22 Sudeste 0 923.3 0.2 71
2020-03-23 11:00:00 10 8 Sur 21 Sudeste 0 923.3 0.5 78
2020-03-23 10:00:00 7.8 9 Sudeste 16 Sudeste 0 923.4 1.1 85
2020-03-23 09:00:00 6.6 7 Este 16 Sudeste 0 923.1 1.2 96
2020-03-23 08:00:00 6 5 Sudeste 10 Sudeste 0 922.8 1 98
2020-03-23 07:00:00 5.4 5 Sudeste 9 Sur 0 922.3 0.5 97
2020-03-23 06:00:00 5.5 3 Sudeste 9 Sur 0 921.9 -0.4 98
2020-03-23 05:00:00 5.1 0 Calma 6 Sudeste 0 921.8 -0.4 98
2020-03-23 04:00:00 5.9 2 Sudoeste 4 Sur 0 921.8 -0.7 98
2020-03-23 03:00:00 5.8 5 Sudeste 10 Sudeste 0 922.3 -0.3 98
2020-03-23 02:00:00 6.1 3 Noroeste 4 Norte 0 922.2 -0.2 97
2020-03-23 01:00:00 6.3 2 Noroeste 5 Sudoeste 0.2 922.5 0.3 97
2020-03-23 00:00:00 6.4 5 Sudoeste 8 Sur 0 922.6 0.8 97
2020-03-22 23:00:00 6.7 0 Calma 8 Nordeste 0 922.4 1.3 97
2020-03-22 22:00:00 7.1 3 Nordeste 8 Oeste 1.2 922.2 2 96
2020-03-22 21:00:00 7.3 5 Oeste 17 Oeste 4.4 921.8 2.3 96
2020-03-22 20:00:00 7.6 14 Oeste 23 Oeste 1.6 921.1 2.6 92
2020-03-22 19:00:00 8.4 3 Nordeste 12 Este 0.2 920.2 1.5 91
2020-03-22 18:00:00 8.9 8 Sudoeste 28 Sudoeste 0.6 919.5 0.4 87
2020-03-22 17:00:00 11.3 12 Sudeste 24 Sudeste 0 918.5 -1 69
2020-03-22 16:00:00 13 6 Sudeste 14 Sudeste 0 918.7 -1.4 63
2020-03-22 15:00:00 9.9 4 Sur 18 Oeste 1.4 919.1 -1.2 83
2020-03-22 14:00:00 10.8 4 Sudoeste 8 Sur 0 919.5 -0.9 75
2020-03-22 13:00:00 9.8 2 Oeste 11 Noroeste 0 920.1 0.3 81
2020-03-22 12:00:00 8.7 5 Noroeste 9 Norte 0 920.3 0.7 92
2020-03-22 11:00:00 7.5 5 Noroeste 10 Norte 0 920.4 0.9 96
2020-03-22 10:00:00 7.3 5 Norte 10 Norte 0 919.8 0.3 98
2020-03-22 09:00:00 6.7 4 Noroeste 7 Noroeste 0.6 919.6 0.2 98
2020-03-22 08:00:00 6.1 3 Sudeste 5 Sudeste 0.2 919.5 0.1 97
2020-03-22 07:00:00 5.9 0 Calma 6 Sudeste 0 919.5 -0.1 97
2020-03-22 06:00:00 5.7 3 Sudoeste 9 Este 0 919.4 -0.9 97
2020-03-22 05:00:00 5.6 0 Calma 9 Sudeste 0 919.4 -1.6 96
2020-03-22 04:00:00 5.8 6 Sudeste 8 Sudeste 0 919.6 -1.7 94
2020-03-22 03:00:00 7.1 3 Sudeste 5 Sudoeste 0 920.3 -1.3 94
2020-03-22 02:00:00 7.5 3 Oeste 8 Oeste 0 921 -0.7 93
2020-03-22 01:00:00 7.4 3 Norte 10 Norte 0 921.3 -0.3 93
2020-03-22 00:00:00 7.4 4 Nordeste 14 Nordeste 0.2 921.6 0.1 93
2020-03-21 23:00:00 7.7 5 Noroeste 15 Oeste 0.2 921.7 1 91
2020-03-21 22:00:00 8.3 3 Nordeste 24 Sudeste 1.2 921.6 1.6 94
2020-03-21 21:00:00 8.7 11 Sur 21 Sudeste 0.4 921.5 1.7 89
2020-03-21 20:00:00 9.7 13 Sur 25 Sudeste 0 920.7 0.7 80
2020-03-21 19:00:00 11.9 7 Sur 10 Sudeste 0 920 -0.5 61
2020-03-21 18:00:00 14.3 5 Sudeste 11 Sudeste 0 919.8 -1.5 49
2020-03-21 17:00:00 14.1 5 Nordeste 27 Norte 0 920 -2.3 52
2020-03-21 16:00:00 13.8 6 Norte 18 Norte 0 920.5 -2.2 55
2020-03-21 15:00:00 12.4 9 Nordeste 19 Norte 0 921.3 -2 68
2020-03-21 14:00:00 10.3 9 Norte 18 Norte 0 922.3 -0.9 75
2020-03-21 13:00:00 8.1 11 Norte 18 Norte 1 922.7 -0.5 90
2020-03-21 12:00:00 8.1 5 Norte 13 Nordeste 0.8 923.3 0.6 92
2020-03-21 11:00:00 7.4 8 Norte 13 Norte 0.4 923.2 1.2 93
2020-03-21 10:00:00 7.3 8 Norte 20 Sudoeste 1.2 923.2 1 93
2020-03-21 09:00:00 7.1 14 Sudoeste 35 Sudoeste 2.6 922.7 0.4 86
2020-03-21 08:00:00 8.1 8 Sur 15 Sur 0 922 -0.4 86
2020-03-21 07:00:00 8.4 7 Sur 11 Sudeste 0 922.2 -0.6 83
2020-03-21 06:00:00 8.5 6 Este 21 Sudeste 0 922.3 -0.9 81
2020-03-21 05:00:00 8.4 7 Sudeste 25 Este 0 922.4 -1.6 85
2020-03-21 04:00:00 8.5 10 Este 26 Sudeste 0 922.8 -1.7 89
2020-03-21 03:00:00 8.7 8 Sudeste 21 Este 0 923.2 -1.9 88
2020-03-21 02:00:00 9.1 14 Sudeste 27 Este 0 924 -1.3 85
2020-03-21 01:00:00 9.2 14 Este 30 Este 0 924.5 -0.7 82
2020-03-21 00:00:00 9.5 10 Este 26 Este 0 925.1 0.4 79
2020-03-20 23:00:00 9.4 16 Este 35 Sudeste 0 925.3 1.6 80
2020-03-20 22:00:00 9.4 15 Sudeste 30 Este 0 925.2 1.9 76
2020-03-20 21:00:00 9.7 12 Sudeste 33 Sudeste 0 924.7 1.6 76
2020-03-20 20:00:00 10.3 13 Sudeste 26 Sudeste 0 923.7 0.1 79
2020-03-20 19:00:00 12.1 13 Sudeste 24 Sudeste 0 923.3 -1 73
2020-03-20 18:00:00 12.6 10 Sur 19 Sur 0 923.1 -2 68
2020-03-20 17:00:00 13.8 10 Sudeste 18 Sudeste 0 923.6 -2.4 64
2020-03-20 16:00:00 14.5 7 Sudeste 24 Sudeste 0 924.3 -2.3 60
2020-03-20 15:00:00 14.2 13 Sudeste 27 Sudeste 0 925.1 -1.6 63
2020-03-20 14:00:00 11.9 15 Sudeste 29 Sudeste 0 926 -0.5 70
2020-03-20 13:00:00 11.7 15 Sudeste 29 Sudeste 0 926.6 -0.1 68
2020-03-20 12:00:00 11.8 14 Sudeste 26 Este 0 926.7 0.1 64
2020-03-20 11:00:00 9.6 7 Sudeste 12 Sudeste 0 926.5 0.4 69
2020-03-20 10:00:00 8.3 5 Nordeste 8 Nordeste 0 926.7 1.1 82
2020-03-20 09:00:00 5.9 3 Nordeste 9 Nordeste 0 926.6 1.1 95
2020-03-20 08:00:00 3.9 6 Sudeste 9 Sudeste 0 926.1 0.4 95
2020-03-20 07:00:00 3.7 3 Sudeste 9 Este 0 925.6 -0.4 92
2020-03-20 06:00:00 4.7 5 Este 13 Sudeste 0 925.5 -1.3 88
2020-03-20 05:00:00 6.2 7 Sudeste 12 Este 0 925.7 -1.6 85
2020-03-20 04:00:00 8.2 3 Nordeste 18 Sudeste 0 926 -1.8 78
2020-03-20 03:00:00 8.2 8 Sudeste 14 Sudeste 0 926.8 -1.2 81
2020-03-20 02:00:00 8.2 6 Este 17 Sudeste 0 927.3 -0.8 80
2020-03-20 01:00:00 8.4 8 Este 23 Sudeste 0 927.8 -0.5 78
2020-03-20 00:00:00 8.1 8 Sudeste 16 Sudeste 0 928 0.1 84
2020-03-19 23:00:00 8.3 12 Sudeste 23 Sudeste 0 928.1 0.4 82
2020-03-19 22:00:00 9 14 Sudeste 25 Sudeste 0 928.3 0.9 77
2020-03-19 21:00:00 10.3 13 Sudeste 24 Sudeste 0 927.9 0.5 71
2020-03-19 20:00:00 10.5 10 Sudeste 23 Sudeste 0 927.7 0 74
2020-03-19 19:00:00 10.9 14 Sudeste 27 Este 0 927.4 -0.6 73
2020-03-19 18:00:00 11.5 16 Sudeste 28 Sudeste 0 927.4 -1 69
2020-03-19 17:00:00 12.2 15 Sudeste 29 Sudeste 0 927.7 -1.5 68
2020-03-19 16:00:00 12.8 18 Sudeste 32 Este 0 928 -1.9 64
2020-03-19 15:00:00 13.5 18 Sudeste 31 Este 0 928.4 -1.8 59
2020-03-19 14:00:00 13.2 18 Sudeste 30 Este 0 929.2 -1.1 61
2020-03-19 13:00:00 11.5 19 Sudeste 32 Sudeste 0 929.9 -0.4 65
2020-03-19 12:00:00 11.5 18 Sudeste 31 Sudeste 0 930.2 0.2 66
2020-03-19 11:00:00 11.6 17 Sudeste 30 Sudeste 0 930.3 0.4 64
2020-03-19 10:00:00 10.3 15 Sudeste 26 Sudeste 0 930.3 0.3 71
2020-03-19 09:00:00 9.5 13 Este 22 Este 0 930 0 74
2020-03-19 08:00:00 8.9 10 Sudeste 16 Este 0 929.9 0 80
2020-03-19 07:00:00 9 8 Sudeste 16 Sudeste 0 930 -0.4 81
2020-03-19 06:00:00 9.2 10 Sudeste 18 Sudeste 0 930 -1.1 80
2020-03-19 05:00:00 9.3 11 Sudeste 20 Sudeste 0 929.9 -1.6 80
2020-03-19 04:00:00 9.3 11 Sudeste 19 Sudeste 0 930.4 -1.3 82
2020-03-19 03:00:00 9.5 11 Sudeste 20 Sudeste 0 931.1 -1.1 81
2020-03-19 02:00:00 9.7 12 Sudeste 22 Sudeste 0 931.5 -0.8 80
2020-03-19 01:00:00 9.8 10 Sudeste 21 Sudeste 0 931.7 -0.4 82
2020-03-19 00:00:00 10 13 Sudeste 19 Sudeste 0 932.2 0.6 83
2020-03-18 23:00:00 9.7 12 Sudeste 24 Sudeste 0 932.3 1.2 84
2020-03-18 22:00:00 10 16 Sudeste 28 Sudeste 0 932.1 1.3 81
2020-03-18 21:00:00 10.6 17 Sudeste 28 Sudeste 0 931.6 1.1 77
2020-03-18 20:00:00 11.5 17 Sudeste 28 Sudeste 0 931.1 0.5 68
2020-03-18 19:00:00 13.4 18 Sudeste 35 Sudeste 0 930.8 0 57
2020-03-18 18:00:00 15.3 19 Sudeste 36 Sudeste 0 930.5 -0.7 51
2020-03-18 17:00:00 15.9 22 Sudeste 39 Sudeste 0 930.6 -1.5 50
2020-03-18 16:00:00 16.2 24 Sudeste 41 Sudeste 0 930.8 -2.1 50
2020-03-18 15:00:00 15.9 22 Sudeste 40 Sudeste 0 931.2 -2.3 52
2020-03-18 14:00:00 14.5 22 Sudeste 41 Sudeste 0 932.1 -1.6 58
2020-03-18 13:00:00 13.9 22 Sudeste 41 Sudeste 0 932.9 -0.9 64
2020-03-18 12:00:00 13.3 18 Sudeste 31 Sudeste 0 933.5 0 67
2020-03-18 11:00:00 11.4 19 Sudeste 30 Sudeste 0 933.7 0.4 75
2020-03-18 10:00:00 9.1 10 Sudeste 16 Sudeste 0 933.8 0.6 89
2020-03-18 09:00:00 8.9 8 Sudeste 17 Sudeste 0 933.5 0.8 90
2020-03-18 08:00:00 8.7 8 Sudeste 16 Este 0 933.3 0.8 92
2020-03-18 07:00:00 9.2 13 Este 25 Este 0 933.2 0.4 84
2020-03-18 06:00:00 9.4 12 Este 23 Sudeste 0 932.7 -0.2 84
2020-03-18 05:00:00 9.1 8 Este 18 Este 0 932.5 -0.1 91
2020-03-18 04:00:00 9.3 7 Este 23 Este 0 932.8 0.1 87
2020-03-18 03:00:00 9.8 12 Este 33 Este 0 932.9 0.4 84
2020-03-18 02:00:00 10.5 21 Este 31 Sudeste 0 932.6 0.4 78
2020-03-18 01:00:00 11.1 10 Este 29 Este 0 932.7 0.6 75
2020-03-18 00:00:00 11.2 7 Este 24 Este 0 932.5 1.1 84
2020-03-17 23:00:00 10.6 12 Este 24 Este 0 932.2 1.2 93
2020-03-17 22:00:00 10 8 Sudeste 18 Sur 0 932.1 1.3 93
2020-03-17 21:00:00 10 10 Sudeste 17 Sudeste 0 931.4 0.7 89
2020-03-17 20:00:00 9.4 11 Sur 22 Sudeste 0 931 0.6 86
2020-03-17 19:00:00 9.5 9 Sudeste 18 Sudeste 0 930.8 0.7 84
2020-03-17 18:00:00 9.8 9 Sudeste 23 Sudeste 0 930.7 0.9 88
2020-03-17 17:00:00 9.6 11 Sudeste 20 Sudeste 2.2 930.4 0.5 91
2020-03-17 16:00:00 11.7 15 Sudeste 26 Este 0 930.1 -0.1 68
2020-03-17 15:00:00 14.3 15 Este 28 Este 0 929.8 -0.3 42
2020-03-17 14:00:00 16.3 15 Este 36 Este 0 929.9 -0.3 37
2020-03-17 13:00:00 14.7 24 Este 44 Sudeste 0 930.2 0.3 40
2020-03-17 12:00:00 13.1 18 Este 38 Sudeste 0 930.1 0.9 38
2020-03-17 11:00:00 10.6 19 Este 35 Sudeste 0 930.2 1.7 49
2020-03-17 10:00:00 6.6 6 Nordeste 15 Este 0 929.9 1.9 81
2020-03-17 09:00:00 2.7 5 Este 12 Sudeste 0 929.2 2 92
2020-03-17 08:00:00 1.2 8 Sudeste 13 Sudeste 0 928.5 1.9 94
2020-03-17 07:00:00 0.1 3 Norte 9 Sur 0 928 1.5 94
2020-03-17 06:00:00 -0.7 2 Sur 9 Noroeste 0 927.2 0.7 90
2020-03-17 05:00:00 -0.5 6 Noroeste 12 Noroeste 0 926.6 0.1 91
2020-03-17 04:00:00 -0.4 5 Este 10 Sudeste 0 926.5 0.5 90
2020-03-17 03:00:00 0.9 3 Oeste 10 Sudeste 0 926.5 0.5 85
2020-03-17 02:00:00 2.2 3 Nordeste 11 Nordeste 0 926.5 0.8 80
2020-03-17 01:00:00 2.5 5 Este 10 Sudeste 0 926 0.9 85
2020-03-17 00:00:00 2.6 8 Sudeste 11 Sudeste 0 926 1.5 85
2020-03-16 23:00:00 3.3 6 Sur 11 Sur 0 925.7 2.2 82
2020-03-16 22:00:00 4 6 Sur 10 Sur 0 925.1 2.2 77
2020-03-16 21:00:00 5 4 Norte 12 Oeste 0 924.5 2.2 64
2020-03-16 20:00:00 5.7 5 Norte 22 Noroeste 0 923.5 1.8 61
2020-03-16 19:00:00 7.8 14 Noroeste 31 Oeste 0 922.9 1.7 51
2020-03-16 18:00:00 9.9 18 Oeste 32 Oeste 0 922.3 1.1 44
2020-03-16 17:00:00 10.6 20 Noroeste 36 Noroeste 0 921.7 -0.2 45
2020-03-16 16:00:00 11.7 18 Oeste 31 Oeste 0 921.2 -1.3 41
2020-03-16 15:00:00 11.2 18 Noroeste 29 Oeste 0 921.2 -1.6 44
2020-03-16 14:00:00 7.7 12 Noroeste 24 Oeste 0 921.9 -1.4 54
2020-03-16 13:00:00 7.4 13 Noroeste 25 Oeste 0 922.5 -0.7 60
2020-03-16 12:00:00 5.5 14 Noroeste 24 Noroeste 0 922.8 0.6 78
2020-03-16 11:00:00 4.1 15 Oeste 28 Oeste 0 923.3 2.5 88
2020-03-16 10:00:00 3.9 16 Oeste 37 Oeste 0 923.2 2.8 91
2020-03-16 09:00:00 4.6 27 Oeste 48 Oeste 0 922.2 1.8 92
2020-03-16 08:00:00 6.7 8 Oeste 13 Oeste 0 920.8 0.2 96
2020-03-16 07:00:00 6.3 3 Norte 11 Sudoeste 0 920.4 -0.8 94
2020-03-16 06:00:00 6 8 Sur 13 Sudeste 0 920.4 -1.7 95
2020-03-16 05:00:00 6.6 7 Sur 12 Sur 0 920.6 -2 95
2020-03-16 04:00:00 7.5 5 Sur 13 Sudeste 0 921.2 -1.8 95
2020-03-16 03:00:00 8.8 8 Sur 18 Sudeste 0 922.1 -1.4 96
2020-03-16 02:00:00 9.4 12 Sudeste 21 Sudeste 0 922.6 -1.2 95
2020-03-16 01:00:00 9.8 12 Sudeste 22 Sudeste 0 923 -0.8 91
2020-03-16 00:00:00 10.4 6 Sur 9 Sur 0 923.5 0 86
2020-03-15 23:00:00 11 0 Calma 6 Este 0 923.8 -0.2 85
2020-03-15 22:00:00 11.6 2 Sur 11 Sudeste 0 923.8 -0.7 81
2020-03-15 21:00:00 12.1 7 Sudeste 10 Sudeste 0 923.5 -0.7 77
2020-03-15 20:00:00 12.9 7 Sudoeste 17 Sur 0 924 -0.6 67
2020-03-15 19:00:00 13 9 Sudeste 28 Sudeste 0 924.5 0.5 74
2020-03-15 18:00:00 12.9 12 Sudeste 34 Sur 0.2 924.2 -0.1 74
2020-03-15 17:00:00 13.4 8 Sur 36 Sudoeste 0 924.6 -0.5 66
2020-03-15 16:00:00 17.3 13 Sudeste 28 Sudeste 0 924 -2 36
2020-03-15 15:00:00 18.6 4 Sur 10 Sudeste 0 924.3 -2.5 41
2020-03-15 14:00:00 18.6 6 Sudeste 19 Sudeste 0 925.1 -2.4 44
2020-03-15 13:00:00 19.1 8 Sudeste 15 Sur 0 926 -2 41
2020-03-15 12:00:00 15.2 6 Norte 10 Norte 0 926.8 -1.1 67
2020-03-15 11:00:00 10.1 5 Nordeste 11 Norte 0 927.5 0 92
2020-03-15 10:00:00 7.3 3 Oeste 7 Norte 0 928 0.8 97
2020-03-15 09:00:00 6 6 Norte 9 Norte 0 927.9 0.8 97
2020-03-15 08:00:00 5.1 4 Noroeste 7 Noroeste 0 927.5 0.3 96
2020-03-15 07:00:00 6.3 2 Noroeste 9 Sudeste 0 927.2 -0.2 96
2020-03-15 06:00:00 8.1 5 Sur 17 Sudeste 0 927.1 -1 97
2020-03-15 05:00:00 8.3 11 Sudeste 22 Sudeste 0 927.2 -1.2 97
2020-03-15 04:00:00 7.7 9 Sudeste 18 Sudeste 0 927.4 -1.2 97
2020-03-15 03:00:00 7.5 9 Sudeste 17 Sudeste 0 928.1 -0.7 96
2020-03-15 02:00:00 7.8 8 Sudeste 15 Sur 0 928.4 -0.6 94
2020-03-15 01:00:00 8.3 10 Sudeste 15 Sudeste 0 928.6 -0.1 92
2020-03-15 00:00:00 9.3 10 Sudeste 19 Sudeste 0 928.8 0.4 88
2020-03-14 23:00:00 10.5 11 Sudeste 20 Sur 0 929 1.3 85
2020-03-14 22:00:00 11.2 13 Sur 22 Sur 0 928.7 1.4 80
2020-03-14 21:00:00 12.6 6 Este 28 Sur 0 928.4 1.3 70
2020-03-14 20:00:00 13.8 16 Sur 32 Sur 0 927.7 0.8 64
2020-03-14 19:00:00 16.1 20 Sudeste 33 Sudeste 0 927.3 0.3 59
2020-03-14 18:00:00 19.3 16 Sudeste 30 Sudeste 0 927.1 -0.4 49
2020-03-14 17:00:00 21.6 18 Sudeste 29 Sur 0 926.9 -1.4 39
2020-03-14 16:00:00 22.5 6 Este 22 Sudeste 0 927 -1.8 35
2020-03-14 15:00:00 21.7 7 Oeste 13 Noroeste 0 927.5 -1.9 30
2020-03-14 14:00:00 21.9 4 Sudeste 15 Norte 0 928.3 -1.6 30
2020-03-14 13:00:00 19.2 6 Noroeste 12 Oeste 0 928.8 -1.2 52
2020-03-14 12:00:00 15.9 4 Noroeste 9 Noroeste 0 929.4 -0.2 61
2020-03-14 11:00:00 12 3 Nordeste 9 Norte 0 929.9 0.6 77
2020-03-14 10:00:00 8 3 Norte 7 Noroeste 0 930 1.1 95
2020-03-14 09:00:00 4.9 0 Calma 6 Sur 0 929.6 1 96
2020-03-14 08:00:00 3.1 4 Sudeste 6 Sudeste 0 929.3 0.9 94
2020-03-14 07:00:00 3.5 5 Sudeste 8 Sudeste 0 928.9 0.7 94
2020-03-14 06:00:00 4.4 6 Sudeste 10 Sudeste 0 928.6 0 93
2020-03-14 05:00:00 5.3 7 Sudeste 9 Sudeste 0 928.4 -0.5 92
2020-03-14 04:00:00 6.4 7 Sudeste 9 Sudeste 0 928.2 -0.8 92
2020-03-14 03:00:00 7.9 8 Sur 10 Sur 0 928.6 -0.3 92
2020-03-14 02:00:00 8.8 4 Este 9 Este 0 928.9 0.1 87
2020-03-14 01:00:00 9.7 5 Nordeste 10 Sudeste 0 929 0.8 86
2020-03-14 00:00:00 11 6 Sudeste 19 Sur 0 928.9 1.1 81
2020-03-13 23:00:00 11.6 11 Sudeste 18 Sudeste 0 928.8 1.7 77
2020-03-13 22:00:00 12 12 Sudeste 20 Sudeste 0 928.2 1.7 75
2020-03-13 21:00:00 12.8 11 Sudeste 24 Sudeste 0 927.8 1.9 69
2020-03-13 20:00:00 13.7 10 Sudeste 24 Sudeste 0 927.1 1.1 65
2020-03-13 19:00:00 15.4 16 Sudeste 28 Sudeste 0 926.5 0.4 58
2020-03-13 18:00:00 17.2 16 Sudeste 36 Sudeste 0 925.9 -0.6 53
2020-03-13 17:00:00 18.9 19 Sudeste 31 Sudeste 0 926 -1.2 50
2020-03-13 16:00:00 20.1 20 Sudeste 31 Sudeste 0 926.1 -1.7 42
2020-03-13 15:00:00 20.6 18 Sudeste 29 Sur 0 926.5 -1.7 38
2020-03-13 14:00:00 21.4 15 Sudeste 25 Sudeste 0 927.2 -1.4 37
2020-03-13 13:00:00 21.2 3 Sudoeste 10 Sudeste 0 927.8 -0.9 40
2020-03-13 12:00:00 17.8 5 Norte 10 Noroeste 0 928.2 -0.3 53
2020-03-13 11:00:00 13 2 Noroeste 7 Norte 0 928.6 0.6 66
2020-03-13 10:00:00 10.6 5 Noroeste 9 Noroeste 0 928.7 1 71
2020-03-13 09:00:00 8.8 4 Noroeste 6 Oeste 0 928.5 0.9 77
2020-03-13 08:00:00 6.4 6 Sudeste 8 Sur 0 928 0.4 86
2020-03-13 07:00:00 6.4 5 Sur 7 Sudeste 0 927.7 -0.1 85
2020-03-13 06:00:00 7.7 4 Sur 6 Sur 0 927.6 -0.5 80
2020-03-13 05:00:00 8.7 3 Oeste 6 Oeste 0 927.6 -0.8 74
2020-03-13 04:00:00 8.9 4 Sudoeste 8 Sudeste 0 927.8 -1 75
2020-03-13 03:00:00 9.6 7 Sur 12 Sudeste 0 928.1 -0.8 68
2020-03-13 02:00:00 9.6 8 Sudeste 10 Sur 0 928.4 -0.2 69
2020-03-13 01:00:00 10.7 7 Sur 9 Sur 0 928.8 0.3 65
2020-03-13 00:00:00 12.3 5 Sur 12 Sudeste 0 928.9 0.9 59
2020-03-12 23:00:00 13.6 7 Sudeste 14 Sudeste 0 928.6 1.1 53
2020-03-12 22:00:00 15.7 5 Sur 17 Sudeste 0 928.5 1.4 46
2020-03-12 21:00:00 17 8 Sur 22 Sur 0 928 1 42
2020-03-12 20:00:00 19.3 11 Sur 24 Sudeste 0 927.5 0.3 33
2020-03-12 19:00:00 23.2 15 Sudeste 27 Sudeste 0 927.1 -0.6 29
2020-03-12 18:00:00 26.9 14 Sudeste 22 Sudeste 0 927 -1.6 23
2020-03-12 17:00:00 28 4 Sudoeste 14 Oeste 0 927.2 -2.6 18
2020-03-12 16:00:00 27.3 5 Noroeste 15 Sudeste 0 927.7 -2.8 20
2020-03-12 15:00:00 26.5 5 Norte 10 Norte 0 928.6 -2.4 23
2020-03-12 14:00:00 25.1 7 Norte 16 Noroeste 0 929.8 -1.6 25
2020-03-12 13:00:00 23.5 7 Nordeste 12 Norte 0 930.5 -0.9 33
2020-03-12 12:00:00 20.2 3 Oeste 8 Norte 0 931 -0.3 40
2020-03-12 11:00:00 14.9 3 Nordeste 10 Norte 0 931.4 0.3 52
2020-03-12 10:00:00 11.7 5 Noroeste 8 Noroeste 0 931.4 0.5 67
2020-03-12 09:00:00 6.8 3 Sudeste 9 Sudeste 0 931.3 0.3 89
2020-03-12 08:00:00 4.7 5 Sudeste 9 Sudeste 0 931.1 -0.3 88
2020-03-12 07:00:00 5.2 3 Sudeste 8 Sudeste 0 930.9 -1.2 87
2020-03-12 06:00:00 6 3 Oeste 8 Sudeste 0 931 -1.7 84
2020-03-12 05:00:00 6.3 5 Sur 10 Sudeste 0 931.4 -1.5 83
2020-03-12 04:00:00 6.7 6 Sur 8 Sur 0 932.1 -1.2 81
2020-03-12 03:00:00 7.6 7 Este 8 Sudeste 0 932.7 -0.6 76
2020-03-12 02:00:00 9 5 Sur 10 Sudeste 0 932.9 -0.5 70
2020-03-12 01:00:00 10.6 5 Sur 11 Sudeste 0 933.3 0.3 64
2020-03-12 00:00:00 12.4 7 Sudeste 12 Sur 0 933.3 0.9 61
2020-03-11 23:00:00 14.7 5 Sudeste 15 Este 0 933.4 1.4 53
2020-03-11 22:00:00 15.9 8 Nordeste 13 Nordeste 0 933 1.5 50
2020-03-11 21:00:00 18.5 8 Sur 16 Sur 0 932.4 1.2 37
2020-03-11 20:00:00 20.7 11 Sur 19 Sudeste 0 932 0.7 34
2020-03-11 19:00:00 24.9 13 Sudeste 24 Sudeste 0 931.5 -0.1 27
2020-03-11 18:00:00 28.3 14 Sudeste 24 Sudeste 0 931.2 -1 20
2020-03-11 17:00:00 30.3 5 Sudeste 25 Este 0 931.3 -1.9 16
2020-03-11 16:00:00 30.1 6 Sur 15 Sudeste 0 931.6 -2.6 16
2020-03-11 15:00:00 28.6 5 Sur 13 Sudeste 0 932.2 -2.6 18
2020-03-11 14:00:00 25.3 5 Norte 10 Noroeste 0 933.2 -2 31
2020-03-11 13:00:00 21.5 5 Norte 10 Norte 0 934.2 -1.3 38
2020-03-11 12:00:00 18.5 5 Norte 9 Norte 0 934.8 -0.6 46
2020-03-11 11:00:00 13.6 2 Sudoeste 6 Este 0 935.2 0.1 58
2020-03-11 10:00:00 9 2 Oeste 5 Noroeste 0 935.5 0.5 76
2020-03-11 09:00:00 6 0 Calma 8 Sudeste 0 935.4 0.8 89
2020-03-11 08:00:00 4.1 7 Sur 9 Sur 0 935.1 0.5 90
2020-03-11 07:00:00 4.3 6 Sur 7 Sudeste 0 935 0.2 90
2020-03-11 06:00:00 4.9 0 Calma 5 Noroeste 0 934.6 -0.3 87
2020-03-11 05:00:00 5.3 2 Sur 9 Sudeste 0 934.6 -0.7 85
2020-03-11 04:00:00 6.2 6 Sudeste 9 Sudeste 0 934.8 -0.7 82
2020-03-11 03:00:00 6.7 6 Sudeste 10 Sudeste 0 934.9 -0.6 82
2020-03-11 02:00:00 8 6 Sudeste 9 Sudeste 0 935.3 -0.5 76
2020-03-11 01:00:00 10.1 0 Calma 10 Sudeste 0 935.5 0 68
2020-03-11 00:00:00 10.8 8 Sur 15 Sudeste 0 935.5 0.2 65
2020-03-10 23:00:00 12 10 Sur 15 Sur 0 935.8 0.9 63
2020-03-10 22:00:00 16.9 6 Sur 24 Oeste 0 935.5 1.1 43
2020-03-10 21:00:00 18.3 13 Oeste 22 Oeste 0 935.3 1.5 35
2020-03-10 20:00:00 18.6 5 Sudoeste 27 Oeste 0 934.9 1.3 37
2020-03-10 19:00:00 20.9 19 Oeste 29 Oeste 0 934.4 0.6 32
2020-03-10 18:00:00 23 19 Oeste 30 Oeste 0 933.8 -0.5 28
2020-03-10 17:00:00 24 12 Noroeste 22 Oeste 0 933.6 -1.5 26
2020-03-10 16:00:00 24.5 6 Noroeste 16 Noroeste 0 933.8 -2 25
2020-03-10 15:00:00 23.3 7 Noroeste 20 Oeste 0 934.3 -2.2 28
2020-03-10 14:00:00 21.7 6 Norte 14 Norte 0 935.1 -1.4 30
2020-03-10 13:00:00 19.8 5 Noroeste 11 Norte 0 935.8 -0.6 33
2020-03-10 12:00:00 16.3 5 Norte 10 Norte 0 936.5 0.3 41
2020-03-10 11:00:00 13 5 Norte 9 Norte 0 936.5 1.4 44
2020-03-10 10:00:00 10 3 Este 8 Este 0 936.4 2 52
2020-03-10 09:00:00 7.7 3 Sudoeste 10 Sur 0 936.2 2.1 57
2020-03-10 08:00:00 7 5 Sur 15 Sudeste 0 935.1 1.1 58
2020-03-10 07:00:00 10.9 15 Oeste 26 Noroeste 0 934.4 0.8 40
2020-03-10 06:00:00 10.1 9 Oeste 26 Oeste 0 934.1 0 45
2020-03-10 05:00:00 11 15 Oeste 33 Oeste 0 934 -0.7 41
2020-03-10 04:00:00 12 24 Oeste 39 Oeste 0 933.6 -1.1 38
2020-03-10 03:00:00 12.7 16 Oeste 34 Oeste 0 934.1 -0.3 38
2020-03-10 02:00:00 12.3 13 Oeste 25 Oeste 0 934.7 0.7 46
2020-03-10 01:00:00 12 13 Oeste 27 Oeste 0 934.7 1.4 48
2020-03-10 00:00:00 12.9 16 Oeste 25 Oeste 0 934.4 1.2 45
2020-03-09 23:00:00 13.1 16 Oeste 29 Oeste 0 934 1.4 45
2020-03-09 22:00:00 12.8 14 Noroeste 32 Oeste 0 933.3 1 44
2020-03-09 21:00:00 14.2 19 Oeste 32 Oeste 0 933.2 2 40
2020-03-09 20:00:00 14.9 27 Oeste 42 Oeste 0 932.6 0.7 37
2020-03-09 19:00:00 16 24 Oeste 48 Oeste 0 932.3 -0.3 34
2020-03-09 18:00:00 18 27 Oeste 45 Oeste 0 931.2 -2.1 21
2020-03-09 17:00:00 19.3 27 Oeste 44 Oeste 0 931.9 -1.8 19
2020-03-09 16:00:00 20 22 Oeste 37 Oeste 0 932.6 -1.6 13
2020-03-09 15:00:00 20.1 19 Oeste 40 Oeste 0 933.3 -1.1 13
2020-03-09 14:00:00 19.2 23 Oeste 36 Oeste 0 933.7 -1.1 21
2020-03-09 13:00:00 17.2 17 Noroeste 29 Noroeste 0 934.2 -0.8 34
2020-03-09 12:00:00 15.5 19 Oeste 30 Oeste 0 934.4 0 43
2020-03-09 11:00:00 13.4 19 Noroeste 29 Noroeste 0 934.8 0.9 51
2020-03-09 10:00:00 10.7 15 Noroeste 27 Oeste 0 935 1.7 54
2020-03-09 09:00:00 9.9 22 Oeste 37 Oeste 0 934.4 1.3 54
2020-03-09 08:00:00 9.5 23 Oeste 33 Oeste 0 933.9 0.9 51
2020-03-09 07:00:00 8.9 10 Noroeste 26 Oeste 0 933.3 -0.5 48
2020-03-09 06:00:00 10.2 19 Oeste 27 Oeste 0 933.1 -1.1 45
2020-03-09 05:00:00 10.2 13 Oeste 31 Oeste 0 933 -1.1 44
2020-03-09 04:00:00 10.2 14 Oeste 22 Oeste 0 933.8 -0.3 45
2020-03-09 03:00:00 10.5 6 Sur 19 Oeste 0 934.2 0.3 39
2020-03-09 02:00:00 9.2 5 Sur 23 Oeste 0 934.1 -0.1 40
2020-03-09 01:00:00 10.7 17 Oeste 24 Noroeste 0 934.1 -0.5 33
2020-03-09 00:00:00 12.9 10 Oeste 24 Oeste 0 933.9 -0.6 26
2020-03-08 23:00:00 13 15 Oeste 19 Oeste 0 934.2 0.3 25
2020-03-08 22:00:00 12.4 13 Oeste 18 Oeste 0 934.6 1.5 26
2020-03-08 21:00:00 12.1 7 Sudoeste 18 Noroeste 0 934.5 2 27
2020-03-08 20:00:00 14.8 13 Noroeste 28 Oeste 0 933.9 1.3 20
2020-03-08 19:00:00 17.4 18 Oeste 30 Noroeste 0 933.1 0.6 11
2020-03-08 18:00:00 19.5 16 Noroeste 33 Oeste 0 932.5 -0.6 12
2020-03-08 17:00:00 20.3 19 Noroeste 31 Noroeste 0 932.6 -1.5 14
2020-03-08 16:00:00 21 16 Oeste 35 Oeste 0 932.5 -2.5 17
2020-03-08 15:00:00 20 19 Oeste 31 Noroeste 0 933.1 -2.6 15
2020-03-08 14:00:00 18.5 17 Oeste 30 Noroeste 0 934.1 -1.6 21
2020-03-08 13:00:00 15.9 15 Noroeste 24 Oeste 0 935 -0.6 32
2020-03-08 12:00:00 11.3 5 Norte 13 Noroeste 0 935.7 0.4 50
2020-03-08 11:00:00 7.7 5 Noroeste 11 Noroeste 0 935.7 0.8 63
2020-03-08 10:00:00 4.2 7 Norte 10 Norte 0 935.6 1.2 78
2020-03-08 09:00:00 0.6 4 Sudeste 8 Sur 0 935.3 1.3 91
2020-03-08 08:00:00 -1.5 7 Sur 11 Sudeste 0 934.9 0.9 89
2020-03-08 07:00:00 -0.6 3 Oeste 9 Sudeste 0 934.4 0.1 86
2020-03-08 06:00:00 0.2 3 Sur 11 Sur 0 934 -0.5 83
2020-03-08 05:00:00 1.2 3 Noroeste 9 Sudeste 0 934 -0.6 79
2020-03-08 04:00:00 2 6 Sur 12 Sudeste 0 934.3 -0.9 77
2020-03-08 03:00:00 2.6 8 Sur 11 Sudeste 0 934.5 -0.8 76
2020-03-08 02:00:00 4 5 Sudoeste 14 Este 0 934.6 -0.9 69
2020-03-08 01:00:00 6.8 3 Sudeste 15 Oeste 0 935.2 0.4 58
2020-03-08 00:00:00 8.9 11 Oeste 22 Oeste 0 935.3 1.1 50
2020-03-07 23:00:00 9.5 12 Oeste 23 Oeste 0 935.5 2.3 48
2020-03-07 22:00:00 9.8 13 Oeste 22 Oeste 0 934.8 2.3 47
2020-03-07 21:00:00 10.1 13 Oeste 20 Oeste 0 934.2 2.3 46
2020-03-07 20:00:00 11.2 16 Oeste 28 Oeste 0 933.2 1.2 41
2020-03-07 19:00:00 12.5 18 Oeste 36 Oeste 0 932.5 0.4 37
2020-03-07 18:00:00 14.2 20 Oeste 35 Oeste 0 931.9 -0.5 33
2020-03-07 17:00:00 14.2 20 Oeste 30 Oeste 0 932 -1.1 33
2020-03-07 16:00:00 15.6 14 Oeste 26 Oeste 0 932.1 -1.7 29
2020-03-07 15:00:00 14.8 17 Oeste 27 Oeste 0 932.4 -2.2 29
2020-03-07 14:00:00 14.1 15 Oeste 31 Oeste 0 933.1 -1.6 29
2020-03-07 13:00:00 13.1 19 Oeste 30 Oeste 0 933.8 -0.8 31
2020-03-07 12:00:00 11.6 17 Oeste 30 Oeste 0 934.6 0.5 34
2020-03-07 11:00:00 9.7 18 Oeste 35 Oeste 0 934.7 1 38
2020-03-07 10:00:00 7.4 16 Oeste 34 Oeste 0 934.6 1.4 46
2020-03-07 09:00:00 6.2 20 Oeste 36 Oeste 0 934.1 1.2 47
2020-03-07 08:00:00 5.2 6 Noroeste 24 Oeste 0 933.7 1.1 50
2020-03-07 07:00:00 5.7 15 Oeste 30 Oeste 0 933.2 0.5 48
2020-03-07 06:00:00 5.8 14 Oeste 26 Oeste 0 932.9 0.2 49
2020-03-07 05:00:00 6.1 15 Oeste 26 Oeste 0 932.6 0.1 50
2020-03-07 04:00:00 6.2 16 Oeste 22 Oeste 0 932.7 0.2 54
2020-03-07 03:00:00 6.2 14 Oeste 20 Oeste 0 932.7 0.6 59
2020-03-07 02:00:00 6.6 12 Oeste 19 Oeste 0 932.5 0.9 59
2020-03-07 01:00:00 7.2 12 Oeste 23 Oeste 0 932.5 1.5 56
2020-03-07 00:00:00 8.2 15 Oeste 29 Oeste 0 932.1 1.7 52
2020-03-06 23:00:00 8.6 15 Oeste 26 Oeste 0 931.6 1.9 50
2020-03-06 22:00:00 8.9 15 Oeste 28 Oeste 0 931 2.6 49
2020-03-06 21:00:00 9.4 17 Oeste 35 Oeste 0 930.4 2.3 47
2020-03-06 20:00:00 10.2 18 Oeste 40 Oeste 0 929.7 2 44
2020-03-06 19:00:00 11.4 26 Oeste 44 Oeste 0 928.4 0.9 39
2020-03-06 18:00:00 12.6 22 Noroeste 42 Noroeste 0 928.1 0.4 44
2020-03-06 17:00:00 12.9 29 Noroeste 54 Noroeste 0 927.7 -0.2 43
2020-03-06 16:00:00 13.1 33 Noroeste 56 Noroeste 0 927.5 -0.5 41
2020-03-06 15:00:00 12.9 30 Noroeste 54 Noroeste 0 927.7 -1 42
2020-03-06 14:00:00 12.4 33 Noroeste 51 Noroeste 0 927.9 -1.1 45
2020-03-06 13:00:00 11.3 24 Noroeste 45 Oeste 0 928 -0.5 55
2020-03-06 12:00:00 9.3 23 Noroeste 37 Oeste 0 928.7 0.3 63
2020-03-06 11:00:00 8.1 17 Noroeste 39 Oeste 0 929 1.1 65
2020-03-06 10:00:00 7.7 19 Oeste 35 Oeste 0 928.5 0.8 60
2020-03-06 09:00:00 6.7 14 Noroeste 30 Noroeste 0 928.4 1 67
2020-03-06 08:00:00 6 9 Norte 16 Norte 0 927.9 0.8 70
2020-03-06 07:00:00 6.2 5 Norte 23 Oeste 0 927.7 1 68
2020-03-06 06:00:00 6.8 15 Oeste 28 Oeste 0 927.4 0.9 65
2020-03-06 05:00:00 7.3 14 Oeste 35 Noroeste 0 927.1 0.1 64
2020-03-06 04:00:00 7.9 18 Oeste 36 Oeste 0 926.7 -0.5 65
2020-03-06 03:00:00 8.5 19 Oeste 36 Noroeste 0 926.5 -0.8 62
2020-03-06 02:00:00 9.2 13 Oeste 28 Oeste 0 927 -0.4 60
2020-03-06 01:00:00 9.9 20 Oeste 40 Oeste 0 927.2 0.3 56
2020-03-06 00:00:00 10.1 14 Oeste 31 Oeste 0 927.3 0.4 57
2020-03-05 23:00:00 10.4 10 Oeste 36 Oeste 0 927.4 1.1 57
2020-03-05 22:00:00 10.8 19 Oeste 34 Oeste 0 926.9 1.9 56
2020-03-05 21:00:00 10.8 14 Oeste 32 Oeste 0 926.9 2.5 57
2020-03-05 20:00:00 11.1 22 Noroeste 46 Oeste 0 926.3 1.8 67
2020-03-05 19:00:00 12 25 Oeste 43 Oeste 0 925 1.3 68
2020-03-05 18:00:00 13.1 29 Oeste 51 Oeste 0 924.4 0.3 68
2020-03-05 17:00:00 13.9 28 Oeste 53 Noroeste 0 924.5 -0.3 64
2020-03-05 16:00:00 15.6 36 Oeste 55 Oeste 0 923.7 -2.3 59
2020-03-05 15:00:00 15.8 24 Oeste 51 Oeste 0 924.1 -2.2 53
2020-03-05 14:00:00 17.6 25 Oeste 46 Oeste 0 924.8 -1.9 45
2020-03-05 13:00:00 16.7 30 Oeste 46 Oeste 0 926 -0.6 44
2020-03-05 12:00:00 15 26 Oeste 45 Oeste 0 926.3 -0.3 54
2020-03-05 11:00:00 12.9 21 Oeste 40 Oeste 0 926.7 0.7 63
2020-03-05 10:00:00 11.6 15 Noroeste 27 Noroeste 0 926.6 0.2 66
2020-03-05 09:00:00 9.5 17 Norte 25 Norte 0 926.6 -0.4 74
2020-03-05 08:00:00 8.8 14 Norte 27 Noroeste 0 926 -1.2 77
2020-03-05 07:00:00 9 9 Noroeste 19 Noroeste 0 926.4 -1.4 78
2020-03-05 06:00:00 9.3 9 Noroeste 19 Noroeste 0 927 -1.5 76
2020-03-05 05:00:00 9.8 9 Oeste 24 Oeste 0 927.2 -1.8 74
2020-03-05 04:00:00 9.5 11 Oeste 23 Noroeste 0 927.8 -1.5 74
2020-03-05 03:00:00 9.6 14 Oeste 27 Oeste 0 928.5 -1.4 73
2020-03-05 02:00:00 10.1 17 Oeste 28 Oeste 0 929 -1.1 72
2020-03-05 01:00:00 10.6 19 Oeste 30 Oeste 0 929.3 -1.1 71
2020-03-05 00:00:00 11 9 Oeste 26 Oeste 0 929.9 -0.6 69
2020-03-04 23:00:00 9.9 4 Sudoeste 11 Oeste 0 930.1 -0.2 74
2020-03-04 22:00:00 11 6 Oeste 12 Sudoeste 0 930.4 0.8 69
2020-03-04 21:00:00 11.6 4 Sudeste 24 Oeste 0 930.5 1.1 65
2020-03-04 20:00:00 13.3 15 Oeste 32 Oeste 0 930.3 0.9 58
2020-03-04 19:00:00 15.3 17 Oeste 35 Oeste 0 929.6 -0.2 51
2020-03-04 18:00:00 16.4 25 Noroeste 40 Noroeste 0 929.4 -0.9 49
2020-03-04 17:00:00 17.6 23 Oeste 42 Noroeste 0 929.4 -1.9 50
2020-03-04 16:00:00 17.6 24 Noroeste 38 Noroeste 0 929.8 -2 51
2020-03-04 15:00:00 17.5 19 Oeste 38 Oeste 0 930.3 -1.7 52
2020-03-04 14:00:00 16.9 21 Noroeste 41 Oeste 0 931.3 -1.3 55
2020-03-04 13:00:00 15.6 26 Oeste 41 Oeste 0 931.8 -0.7 60
2020-03-04 12:00:00 14.5 23 Noroeste 35 Oeste 0 932 -0.3 68
2020-03-04 11:00:00 12.8 19 Noroeste 29 Oeste 0 932.6 0.7 79
2020-03-04 10:00:00 12 18 Oeste 29 Oeste 0 932.5 0.7 81
2020-03-04 09:00:00 11.5 22 Oeste 33 Oeste 0 932.3 0.8 82
2020-03-04 08:00:00 11.7 18 Oeste 29 Noroeste 0 931.9 0.1 77
2020-03-04 07:00:00 12 20 Oeste 31 Oeste 0 931.8 -0.1 75
2020-03-04 06:00:00 12.4 10 Oeste 32 Oeste 0 931.5 -0.5 72
2020-03-04 05:00:00 12.7 11 Oeste 22 Sudoeste 0 931.8 -0.1 70
2020-03-04 04:00:00 12.8 11 Noroeste 24 Oeste 0 931.9 0.2 70
2020-03-04 03:00:00 12.7 7 Sur 25 Oeste 0 932 0.2 69
2020-03-04 02:00:00 12.8 10 Sudoeste 35 Oeste 0 931.9 0.4 69
2020-03-04 01:00:00 12.8 18 Oeste 41 Oeste 0 931.7 0.3 69
2020-03-04 00:00:00 12.1 23 Oeste 47 Oeste 0 931.8 0.5 71
2020-03-03 23:00:00 11.5 28 Noroeste 43 Oeste 0 931.5 0.9 74
2020-03-03 22:00:00 12.2 15 Noroeste 32 Noroeste 0 931.4 1.5 68
2020-03-03 21:00:00 12.7 21 Noroeste 38 Noroeste 0 931.3 1.8 64
2020-03-03 20:00:00 13.2 14 Noroeste 43 Oeste 0 930.6 1.8 58
2020-03-03 19:00:00 13.3 26 Oeste 49 Oeste 0 929.9 1.8 56
2020-03-03 18:00:00 13.5 26 Noroeste 52 Oeste 0 929.5 1.4 54
2020-03-03 17:00:00 14.6 27 Oeste 59 Oeste 0 928.8 0 48
2020-03-03 16:00:00 14.6 36 Oeste 61 Oeste 0 928.1 -1.7 44
2020-03-03 15:00:00 15.1 32 Oeste 57 Oeste 0 928.1 -2 39
2020-03-03 14:00:00 14.3 27 Oeste 49 Oeste 0 928.8 -1.6 44
2020-03-03 13:00:00 13.6 23 Oeste 43 Oeste 0 929.8 0.2 44
2020-03-03 12:00:00 10.3 22 Noroeste 41 Noroeste 0 930.1 0.1 56
2020-03-03 11:00:00 9.2 17 Noroeste 46 Noroeste 0 930.4 0.9 61
2020-03-03 10:00:00 6.9 20 Noroeste 32 Noroeste 0 929.6 -0.2 72
2020-03-03 09:00:00 5.7 9 Noroeste 22 Noroeste 0 930 0.6 78
2020-03-03 08:00:00 5.2 11 Norte 21 Noroeste 0 929.5 0.2 78
2020-03-03 07:00:00 5.5 9 Norte 20 Noroeste 0 929.8 0.5 74
2020-03-03 06:00:00 6.5 9 Noroeste 26 Oeste 0 929.4 -0.4 69
2020-03-03 05:00:00 6.9 7 Noroeste 19 Oeste 0 929.3 -0.4 68
2020-03-03 04:00:00 7.4 7 Norte 19 Norte 0 929.3 -0.6 67
2020-03-03 03:00:00 7.4 8 Norte 19 Noroeste 0 929.8 -0.3 67
2020-03-03 02:00:00 8 11 Noroeste 34 Oeste 0 929.7 -0.1 61
2020-03-03 01:00:00 8.7 19 Oeste 37 Oeste 0 929.9 1 56
2020-03-03 00:00:00 9.3 14 Oeste 33 Oeste 0 930.1 2.4 53